sensor_id;sensor_type;location;lat;lon;timestamp;P1;durP1;ratioP1;P2;durP2;ratioP2
63370;SDS011;72561;48.336;14.472;2023-10-13T00:03:08;4.30;;;2.08;;
63370;SDS011;72561;48.336;14.472;2023-10-13T00:06:31;3.58;;;1.63;;
63370;SDS011;72561;48.336;14.472;2023-10-13T00:10:22;3.97;;;1.88;;
63370;SDS011;72561;48.336;14.472;2023-10-13T00:14:38;3.45;;;1.80;;
63370;SDS011;72561;48.336;14.472;2023-10-13T00:17:58;3.75;;;1.65;;
63370;SDS011;72561;48.336;14.472;2023-10-13T00:21:20;3.22;;;1.73;;
63370;SDS011;72561;48.336;14.472;2023-10-13T00:24:41;3.05;;;1.55;;
63370;SDS011;72561;48.336;14.472;2023-10-13T00:28:04;2.90;;;1.60;;
63370;SDS011;72561;48.336;14.472;2023-10-13T00:31:27;3.35;;;1.63;;
63370;SDS011;72561;48.336;14.472;2023-10-13T00:34:48;3.22;;;1.75;;
63370;SDS011;72561;48.336;14.472;2023-10-13T00:38:09;3.47;;;1.77;;
63370;SDS011;72561;48.336;14.472;2023-10-13T00:41:30;3.00;;;1.60;;
63370;SDS011;72561;48.336;14.472;2023-10-13T00:44:51;4.03;;;1.75;;
63370;SDS011;72561;48.336;14.472;2023-10-13T00:48:30;3.75;;;1.73;;
63370;SDS011;72561;48.336;14.472;2023-10-13T00:51:53;3.58;;;1.63;;
63370;SDS011;72561;48.336;14.472;2023-10-13T00:55:14;3.60;;;1.70;;
63370;SDS011;72561;48.336;14.472;2023-10-13T00:58:36;3.17;;;1.52;;
63370;SDS011;72561;48.336;14.472;2023-10-13T01:01:57;3.40;;;1.83;;
63370;SDS011;72561;48.336;14.472;2023-10-13T01:05:19;3.17;;;1.60;;
63370;SDS011;72561;48.336;14.472;2023-10-13T01:08:42;3.78;;;1.92;;
63370;SDS011;72561;48.336;14.472;2023-10-13T01:12:05;2.97;;;1.45;;
63370;SDS011;72561;48.336;14.472;2023-10-13T01:17:24;3.15;;;1.45;;
63370;SDS011;72561;48.336;14.472;2023-10-13T01:20:45;3.80;;;1.95;;
63370;SDS011;72561;48.336;14.472;2023-10-13T01:24:07;3.90;;;1.92;;
63370;SDS011;72561;48.336;14.472;2023-10-13T01:27:29;3.10;;;1.60;;
63370;SDS011;72561;48.336;14.472;2023-10-13T01:30:50;3.38;;;1.73;;
63370;SDS011;72561;48.336;14.472;2023-10-13T01:34:11;3.35;;;1.52;;
63370;SDS011;72561;48.336;14.472;2023-10-13T01:40:03;3.38;;;1.50;;
63370;SDS011;72561;48.336;14.472;2023-10-13T01:43:25;3.30;;;1.73;;
63370;SDS011;72561;48.336;14.472;2023-10-13T01:50:44;2.97;;;1.45;;
63370;SDS011;72561;48.336;14.472;2023-10-13T01:54:05;3.60;;;1.75;;
63370;SDS011;72561;48.336;14.472;2023-10-13T01:57:26;3.33;;;1.58;;
63370;SDS011;72561;48.336;14.472;2023-10-13T02:01:45;4.70;;;1.70;;
63370;SDS011;72561;48.336;14.472;2023-10-13T02:07:27;3.40;;;1.70;;
63370;SDS011;72561;48.336;14.472;2023-10-13T02:11:26;3.10;;;1.60;;
63370;SDS011;72561;48.336;14.472;2023-10-13T02:16:11;3.33;;;1.55;;
63370;SDS011;72561;48.336;14.472;2023-10-13T02:19:32;3.00;;;1.67;;
63370;SDS011;72561;48.336;14.472;2023-10-13T02:22:53;4.13;;;1.85;;
63370;SDS011;72561;48.336;14.472;2023-10-13T02:26:14;3.67;;;2.00;;
63370;SDS011;72561;48.336;14.472;2023-10-13T02:29:35;3.28;;;1.73;;
63370;SDS011;72561;48.336;14.472;2023-10-13T02:36:26;2.88;;;1.55;;
63370;SDS011;72561;48.336;14.472;2023-10-13T02:39:47;3.65;;;1.73;;
63370;SDS011;72561;48.336;14.472;2023-10-13T02:43:08;3.45;;;1.90;;
63370;SDS011;72561;48.336;14.472;2023-10-13T02:46:29;3.00;;;1.45;;
63370;SDS011;72561;48.336;14.472;2023-10-13T02:49:50;3.40;;;1.67;;
63370;SDS011;72561;48.336;14.472;2023-10-13T02:53:13;3.28;;;1.75;;
63370;SDS011;72561;48.336;14.472;2023-10-13T02:56:34;3.30;;;1.70;;
63370;SDS011;72561;48.336;14.472;2023-10-13T02:59:55;3.22;;;1.65;;
63370;SDS011;72561;48.336;14.472;2023-10-13T03:03:16;3.17;;;1.58;;
63370;SDS011;72561;48.336;14.472;2023-10-13T03:06:37;3.63;;;1.83;;
63370;SDS011;72561;48.336;14.472;2023-10-13T03:09:59;3.00;;;1.60;;
63370;SDS011;72561;48.336;14.472;2023-10-13T03:16:12;5.07;;;1.75;;
63370;SDS011;72561;48.336;14.472;2023-10-13T03:19:36;3.42;;;1.80;;
63370;SDS011;72561;48.336;14.472;2023-10-13T03:22:57;3.25;;;1.63;;
63370;SDS011;72561;48.336;14.472;2023-10-13T03:26:18;3.17;;;1.70;;
63370;SDS011;72561;48.336;14.472;2023-10-13T03:29:40;3.50;;;1.95;;
63370;SDS011;72561;48.336;14.472;2023-10-13T03:33:03;3.72;;;1.75;;
63370;SDS011;72561;48.336;14.472;2023-10-13T03:36:25;3.60;;;1.88;;
63370;SDS011;72561;48.336;14.472;2023-10-13T03:39:49;3.10;;;1.80;;
63370;SDS011;72561;48.336;14.472;2023-10-13T03:43:11;4.30;;;1.58;;
63370;SDS011;72561;48.336;14.472;2023-10-13T03:51:50;3.35;;;1.45;;
63370;SDS011;72561;48.336;14.472;2023-10-13T03:59:17;3.85;;;1.83;;
63370;SDS011;72561;48.336;14.472;2023-10-13T04:04:18;3.78;;;1.63;;
63370;SDS011;72561;48.336;14.472;2023-10-13T04:07:39;3.15;;;1.58;;
63370;SDS011;72561;48.336;14.472;2023-10-13T04:11:00;3.35;;;1.65;;
63370;SDS011;72561;48.336;14.472;2023-10-13T04:14:21;4.00;;;1.85;;
63370;SDS011;72561;48.336;14.472;2023-10-13T04:17:42;3.50;;;1.70;;
63370;SDS011;72561;48.336;14.472;2023-10-13T04:21:38;3.80;;;2.08;;
63370;SDS011;72561;48.336;14.472;2023-10-13T04:24:59;3.50;;;2.08;;
63370;SDS011;72561;48.336;14.472;2023-10-13T04:28:20;3.40;;;1.83;;
63370;SDS011;72561;48.336;14.472;2023-10-13T04:31:41;3.10;;;1.50;;
63370;SDS011;72561;48.336;14.472;2023-10-13T04:35:02;4.05;;;2.03;;
63370;SDS011;72561;48.336;14.472;2023-10-13T04:40:44;4.43;;;2.60;;
63370;SDS011;72561;48.336;14.472;2023-10-13T04:50:23;3.65;;;1.77;;
63370;SDS011;72561;48.336;14.472;2023-10-13T04:53:44;3.40;;;1.83;;
63370;SDS011;72561;48.336;14.472;2023-10-13T04:57:05;3.30;;;1.77;;
63370;SDS011;72561;48.336;14.472;2023-10-13T05:00:26;3.60;;;1.80;;
63370;SDS011;72561;48.336;14.472;2023-10-13T05:06:32;3.45;;;1.58;;
63370;SDS011;72561;48.336;14.472;2023-10-13T05:09:54;3.15;;;1.63;;
63370;SDS011;72561;48.336;14.472;2023-10-13T05:13:15;3.17;;;1.65;;
63370;SDS011;72561;48.336;14.472;2023-10-13T05:16:36;4.47;;;1.55;;
63370;SDS011;72561;48.336;14.472;2023-10-13T05:19:57;3.53;;;1.73;;
63370;SDS011;72561;48.336;14.472;2023-10-13T05:28:07;3.55;;;1.80;;
63370;SDS011;72561;48.336;14.472;2023-10-13T05:31:27;3.80;;;1.90;;
63370;SDS011;72561;48.336;14.472;2023-10-13T05:34:48;3.42;;;1.85;;
63370;SDS011;72561;48.336;14.472;2023-10-13T05:38:09;3.55;;;1.80;;
63370;SDS011;72561;48.336;14.472;2023-10-13T05:41:30;4.38;;;1.95;;
63370;SDS011;72561;48.336;14.472;2023-10-13T05:46:02;3.60;;;1.90;;
63370;SDS011;72561;48.336;14.472;2023-10-13T05:51:16;2.97;;;1.45;;
63370;SDS011;72561;48.336;14.472;2023-10-13T05:54:37;3.97;;;1.70;;
63370;SDS011;72561;48.336;14.472;2023-10-13T05:57:58;3.60;;;2.03;;
63370;SDS011;72561;48.336;14.472;2023-10-13T06:01:19;3.70;;;1.80;;
63370;SDS011;72561;48.336;14.472;2023-10-13T06:04:40;3.60;;;1.95;;
63370;SDS011;72561;48.336;14.472;2023-10-13T06:08:05;3.72;;;2.03;;
63370;SDS011;72561;48.336;14.472;2023-10-13T06:11:26;2.97;;;1.50;;
63370;SDS011;72561;48.336;14.472;2023-10-13T06:14:47;3.42;;;1.80;;
63370;SDS011;72561;48.336;14.472;2023-10-13T06:19:52;3.45;;;1.90;;
63370;SDS011;72561;48.336;14.472;2023-10-13T06:23:13;3.85;;;2.05;;
63370;SDS011;72561;48.336;14.472;2023-10-13T06:31:28;2.83;;;1.55;;
63370;SDS011;72561;48.336;14.472;2023-10-13T06:34:49;3.30;;;1.73;;
63370;SDS011;72561;48.336;14.472;2023-10-13T06:39:41;2.97;;;1.58;;
63370;SDS011;72561;48.336;14.472;2023-10-13T06:43:02;3.42;;;1.83;;
63370;SDS011;72561;48.336;14.472;2023-10-13T06:46:23;3.33;;;1.83;;
63370;SDS011;72561;48.336;14.472;2023-10-13T06:49:46;3.67;;;1.60;;
63370;SDS011;72561;48.336;14.472;2023-10-13T06:53:07;3.55;;;1.90;;
63370;SDS011;72561;48.336;14.472;2023-10-13T06:56:30;3.63;;;2.08;;
63370;SDS011;72561;48.336;14.472;2023-10-13T06:59:51;4.38;;;2.05;;
63370;SDS011;72561;48.336;14.472;2023-10-13T07:03:12;4.03;;;2.00;;
63370;SDS011;72561;48.336;14.472;2023-10-13T07:07:34;4.10;;;2.33;;
63370;SDS011;72561;48.336;14.472;2023-10-13T07:10:55;3.50;;;2.15;;
63370;SDS011;72561;48.336;14.472;2023-10-13T07:14:16;3.60;;;2.05;;
63370;SDS011;72561;48.336;14.472;2023-10-13T07:17:37;4.15;;;2.35;;
63370;SDS011;72561;48.336;14.472;2023-10-13T07:20:58;3.80;;;2.13;;
63370;SDS011;72561;48.336;14.472;2023-10-13T07:24:20;3.78;;;2.03;;
63370;SDS011;72561;48.336;14.472;2023-10-13T07:27:41;3.70;;;2.13;;
63370;SDS011;72561;48.336;14.472;2023-10-13T07:31:02;3.92;;;1.85;;
63370;SDS011;72561;48.336;14.472;2023-10-13T07:34:24;4.55;;;2.65;;
63370;SDS011;72561;48.336;14.472;2023-10-13T07:37:45;3.88;;;2.28;;
63370;SDS011;72561;48.336;14.472;2023-10-13T07:41:07;3.67;;;2.10;;
63370;SDS011;72561;48.336;14.472;2023-10-13T07:44:28;3.47;;;2.10;;
63370;SDS011;72561;48.336;14.472;2023-10-13T07:47:49;3.70;;;2.25;;
63370;SDS011;72561;48.336;14.472;2023-10-13T07:51:11;3.67;;;2.10;;
63370;SDS011;72561;48.336;14.472;2023-10-13T07:55:58;3.85;;;2.05;;
63370;SDS011;72561;48.336;14.472;2023-10-13T08:00:49;3.88;;;2.17;;
63370;SDS011;72561;48.336;14.472;2023-10-13T08:04:10;3.30;;;1.95;;
63370;SDS011;72561;48.336;14.472;2023-10-13T08:07:31;3.50;;;2.00;;
63370;SDS011;72561;48.336;14.472;2023-10-13T08:10:52;3.50;;;2.08;;
63370;SDS011;72561;48.336;14.472;2023-10-13T08:14:13;3.40;;;1.80;;
63370;SDS011;72561;48.336;14.472;2023-10-13T08:17:35;3.40;;;1.48;;
63370;SDS011;72561;48.336;14.472;2023-10-13T08:20:57;3.80;;;2.10;;
63370;SDS011;72561;48.336;14.472;2023-10-13T08:28:22;3.28;;;1.75;;
63370;SDS011;72561;48.336;14.472;2023-10-13T08:31:43;4.05;;;1.98;;
63370;SDS011;72561;48.336;14.472;2023-10-13T08:37:01;3.65;;;2.13;;
63370;SDS011;72561;48.336;14.472;2023-10-13T08:40:22;4.50;;;2.47;;
63370;SDS011;72561;48.336;14.472;2023-10-13T08:43:44;6.20;;;3.35;;
63370;SDS011;72561;48.336;14.472;2023-10-13T08:47:06;7.68;;;3.85;;
63370;SDS011;72561;48.336;14.472;2023-10-13T08:50:27;7.80;;;4.78;;
63370;SDS011;72561;48.336;14.472;2023-10-13T08:53:50;6.25;;;4.28;;
63370;SDS011;72561;48.336;14.472;2023-10-13T08:59:28;7.32;;;4.78;;
63370;SDS011;72561;48.336;14.472;2023-10-13T09:02:49;6.93;;;4.80;;
63370;SDS011;72561;48.336;14.472;2023-10-13T09:06:12;7.45;;;5.18;;
63370;SDS011;72561;48.336;14.472;2023-10-13T09:09:44;8.60;;;5.72;;
63370;SDS011;72561;48.336;14.472;2023-10-13T09:13:06;9.98;;;5.88;;
63370;SDS011;72561;48.336;14.472;2023-10-13T09:16:29;7.60;;;5.32;;
63370;SDS011;72561;48.336;14.472;2023-10-13T09:20:15;8.20;;;5.65;;
63370;SDS011;72561;48.336;14.472;2023-10-13T09:23:45;9.23;;;6.00;;
63370;SDS011;72561;48.336;14.472;2023-10-13T09:27:06;8.55;;;5.25;;
63370;SDS011;72561;48.336;14.472;2023-10-13T09:30:29;8.25;;;5.35;;
63370;SDS011;72561;48.336;14.472;2023-10-13T09:33:51;12.50;;;5.95;;
63370;SDS011;72561;48.336;14.472;2023-10-13T09:37:13;9.98;;;5.85;;
63370;SDS011;72561;48.336;14.472;2023-10-13T09:40:34;9.55;;;5.13;;
63370;SDS011;72561;48.336;14.472;2023-10-13T09:46:18;8.65;;;5.85;;
63370;SDS011;72561;48.336;14.472;2023-10-13T09:50:19;12.07;;;5.97;;
63370;SDS011;72561;48.336;14.472;2023-10-13T09:53:40;11.20;;;6.00;;
63370;SDS011;72561;48.336;14.472;2023-10-13T09:57:08;12.98;;;6.80;;
63370;SDS011;72561;48.336;14.472;2023-10-13T10:00:33;16.23;;;7.93;;
63370;SDS011;72561;48.336;14.472;2023-10-13T10:03:55;11.45;;;7.00;;
63370;SDS011;72561;48.336;14.472;2023-10-13T10:07:29;10.52;;;7.28;;
63370;SDS011;72561;48.336;14.472;2023-10-13T10:10:51;11.70;;;7.38;;
63370;SDS011;72561;48.336;14.472;2023-10-13T10:14:28;14.38;;;7.43;;
63370;SDS011;72561;48.336;14.472;2023-10-13T10:18:19;11.75;;;7.00;;
63370;SDS011;72561;48.336;14.472;2023-10-13T10:21:41;11.38;;;6.78;;
63370;SDS011;72561;48.336;14.472;2023-10-13T10:27:43;8.13;;;5.07;;
63370;SDS011;72561;48.336;14.472;2023-10-13T10:31:14;7.65;;;4.35;;
63370;SDS011;72561;48.336;14.472;2023-10-13T10:35:58;8.13;;;4.90;;
63370;SDS011;72561;48.336;14.472;2023-10-13T10:39:24;7.68;;;5.15;;
63370;SDS011;72561;48.336;14.472;2023-10-13T10:42:56;7.13;;;3.95;;
63370;SDS011;72561;48.336;14.472;2023-10-13T10:46:17;7.28;;;4.05;;
63370;SDS011;72561;48.336;14.472;2023-10-13T10:49:46;6.60;;;4.15;;
63370;SDS011;72561;48.336;14.472;2023-10-13T10:53:09;6.88;;;3.97;;
63370;SDS011;72561;48.336;14.472;2023-10-13T10:56:30;7.20;;;3.85;;
63370;SDS011;72561;48.336;14.472;2023-10-13T11:00:39;6.30;;;3.58;;
63370;SDS011;72561;48.336;14.472;2023-10-13T11:04:00;6.00;;;3.33;;
63370;SDS011;72561;48.336;14.472;2023-10-13T11:07:24;6.10;;;3.20;;
63370;SDS011;72561;48.336;14.472;2023-10-13T11:10:46;6.05;;;3.28;;
63370;SDS011;72561;48.336;14.472;2023-10-13T11:14:07;7.18;;;3.40;;
63370;SDS011;72561;48.336;14.472;2023-10-13T11:17:29;7.70;;;3.15;;
63370;SDS011;72561;48.336;14.472;2023-10-13T11:20:55;6.32;;;3.10;;
63370;SDS011;72561;48.336;14.472;2023-10-13T11:24:16;6.15;;;2.90;;
63370;SDS011;72561;48.336;14.472;2023-10-13T11:29:32;4.82;;;2.55;;
63370;SDS011;72561;48.336;14.472;2023-10-13T11:32:56;7.07;;;2.75;;
63370;SDS011;72561;48.336;14.472;2023-10-13T11:36:18;5.55;;;2.65;;
63370;SDS011;72561;48.336;14.472;2023-10-13T11:41:21;5.80;;;3.00;;
63370;SDS011;72561;48.336;14.472;2023-10-13T11:45:30;6.10;;;3.05;;
63370;SDS011;72561;48.336;14.472;2023-10-13T11:48:51;4.50;;;2.50;;
63370;SDS011;72561;48.336;14.472;2023-10-13T11:52:12;6.70;;;3.20;;
63370;SDS011;72561;48.336;14.472;2023-10-13T11:55:33;6.97;;;3.22;;
63370;SDS011;72561;48.336;14.472;2023-10-13T11:58:54;5.78;;;3.28;;
63370;SDS011;72561;48.336;14.472;2023-10-13T12:03:56;6.45;;;2.80;;
63370;SDS011;72561;48.336;14.472;2023-10-13T12:07:17;4.88;;;2.60;;
63370;SDS011;72561;48.336;14.472;2023-10-13T12:10:38;5.30;;;3.03;;
63370;SDS011;72561;48.336;14.472;2023-10-13T12:13:59;4.70;;;2.70;;
63370;SDS011;72561;48.336;14.472;2023-10-13T12:17:21;6.25;;;2.67;;
63370;SDS011;72561;48.336;14.472;2023-10-13T12:21:23;6.57;;;2.67;;
63370;SDS011;72561;48.336;14.472;2023-10-13T12:24:44;6.10;;;3.10;;
63370;SDS011;72561;48.336;14.472;2023-10-13T12:41:32;5.32;;;3.30;;
63370;SDS011;72561;48.336;14.472;2023-10-13T12:44:53;7.03;;;3.38;;
63370;SDS011;72561;48.336;14.472;2023-10-13T12:48:14;5.10;;;2.72;;
63370;SDS011;72561;48.336;14.472;2023-10-13T12:51:35;5.40;;;2.83;;
63370;SDS011;72561;48.336;14.472;2023-10-13T12:54:56;5.28;;;2.55;;
63370;SDS011;72561;48.336;14.472;2023-10-13T12:58:19;4.72;;;2.67;;
63370;SDS011;72561;48.336;14.472;2023-10-13T13:01:40;5.03;;;2.70;;
63370;SDS011;72561;48.336;14.472;2023-10-13T13:05:01;6.15;;;3.13;;
63370;SDS011;72561;48.336;14.472;2023-10-13T13:08:22;4.65;;;2.70;;
63370;SDS011;72561;48.336;14.472;2023-10-13T13:11:43;5.15;;;2.58;;
63370;SDS011;72561;48.336;14.472;2023-10-13T13:15:06;4.82;;;2.60;;
63370;SDS011;72561;48.336;14.472;2023-10-13T13:18:28;5.03;;;2.50;;
63370;SDS011;72561;48.336;14.472;2023-10-13T13:21:49;7.20;;;3.25;;
63370;SDS011;72561;48.336;14.472;2023-10-13T13:25:10;4.78;;;2.35;;
63370;SDS011;72561;48.336;14.472;2023-10-13T13:28:31;6.18;;;2.95;;
63370;SDS011;72561;48.336;14.472;2023-10-13T13:31:54;4.47;;;2.60;;
63370;SDS011;72561;48.336;14.472;2023-10-13T13:35:15;6.40;;;2.88;;
63370;SDS011;72561;48.336;14.472;2023-10-13T13:38:36;5.88;;;2.35;;
63370;SDS011;72561;48.336;14.472;2023-10-13T13:41:57;5.20;;;2.47;;
63370;SDS011;72561;48.336;14.472;2023-10-13T13:45:18;5.35;;;2.70;;
63370;SDS011;72561;48.336;14.472;2023-10-13T13:48:41;4.93;;;2.33;;
63370;SDS011;72561;48.336;14.472;2023-10-13T13:52:02;5.32;;;2.53;;
63370;SDS011;72561;48.336;14.472;2023-10-13T13:55:23;5.10;;;2.70;;
63370;SDS011;72561;48.336;14.472;2023-10-13T13:58:46;5.55;;;2.40;;
63370;SDS011;72561;48.336;14.472;2023-10-13T14:02:08;5.47;;;2.90;;
63370;SDS011;72561;48.336;14.472;2023-10-13T14:05:30;5.00;;;2.75;;
63370;SDS011;72561;48.336;14.472;2023-10-13T14:10:46;5.38;;;2.60;;
63370;SDS011;72561;48.336;14.472;2023-10-13T14:14:08;3.75;;;2.17;;
63370;SDS011;72561;48.336;14.472;2023-10-13T14:17:32;5.95;;;2.60;;
63370;SDS011;72561;48.336;14.472;2023-10-13T14:20:53;4.82;;;2.17;;
63370;SDS011;72561;48.336;14.472;2023-10-13T14:24:14;4.18;;;2.38;;
63370;SDS011;72561;48.336;14.472;2023-10-13T14:27:36;4.57;;;2.08;;
63370;SDS011;72561;48.336;14.472;2023-10-13T14:30:58;4.13;;;2.20;;
63370;SDS011;72561;48.336;14.472;2023-10-13T14:34:19;4.53;;;2.30;;
63370;SDS011;72561;48.336;14.472;2023-10-13T14:37:41;4.10;;;2.30;;
63370;SDS011;72561;48.336;14.472;2023-10-13T14:41:02;8.10;;;2.10;;
63370;SDS011;72561;48.336;14.472;2023-10-13T14:46:41;4.80;;;2.30;;
63370;SDS011;72561;48.336;14.472;2023-10-13T14:50:02;5.35;;;2.10;;
63370;SDS011;72561;48.336;14.472;2023-10-13T14:53:24;4.78;;;2.20;;
63370;SDS011;72561;48.336;14.472;2023-10-13T14:56:46;5.00;;;2.47;;
63370;SDS011;72561;48.336;14.472;2023-10-13T15:00:07;4.28;;;2.08;;
63370;SDS011;72561;48.336;14.472;2023-10-13T15:03:31;3.65;;;2.00;;
63370;SDS011;72561;48.336;14.472;2023-10-13T15:06:52;4.00;;;1.98;;
63370;SDS011;72561;48.336;14.472;2023-10-13T15:10:13;5.90;;;2.53;;
63370;SDS011;72561;48.336;14.472;2023-10-13T15:13:35;4.80;;;2.38;;
63370;SDS011;72561;48.336;14.472;2023-10-13T15:16:56;5.13;;;1.90;;
63370;SDS011;72561;48.336;14.472;2023-10-13T15:20:19;4.80;;;2.40;;
63370;SDS011;72561;48.336;14.472;2023-10-13T15:23:40;3.70;;;2.10;;
63370;SDS011;72561;48.336;14.472;2023-10-13T15:27:01;5.75;;;2.38;;
63370;SDS011;72561;48.336;14.472;2023-10-13T15:30:22;3.80;;;2.03;;
63370;SDS011;72561;48.336;14.472;2023-10-13T15:33:43;4.05;;;1.92;;
63370;SDS011;72561;48.336;14.472;2023-10-13T15:37:13;4.45;;;2.25;;
63370;SDS011;72561;48.336;14.472;2023-10-13T15:40:39;6.13;;;2.25;;
63370;SDS011;72561;48.336;14.472;2023-10-13T15:44:01;3.97;;;2.00;;
63370;SDS011;72561;48.336;14.472;2023-10-13T15:47:22;4.65;;;1.98;;
63370;SDS011;72561;48.336;14.472;2023-10-13T15:50:45;5.13;;;2.47;;
63370;SDS011;72561;48.336;14.472;2023-10-13T15:54:14;5.07;;;2.10;;
63370;SDS011;72561;48.336;14.472;2023-10-13T15:57:37;5.07;;;2.10;;
63370;SDS011;72561;48.336;14.472;2023-10-13T16:01:00;4.30;;;2.15;;
63370;SDS011;72561;48.336;14.472;2023-10-13T16:04:24;3.92;;;1.88;;
63370;SDS011;72561;48.336;14.472;2023-10-13T16:07:50;5.00;;;2.13;;
63370;SDS011;72561;48.336;14.472;2023-10-13T16:11:16;6.28;;;2.15;;
63370;SDS011;72561;48.336;14.472;2023-10-13T16:14:42;4.00;;;2.10;;
63370;SDS011;72561;48.336;14.472;2023-10-13T16:18:04;3.78;;;1.80;;
63370;SDS011;72561;48.336;14.472;2023-10-13T16:21:29;4.55;;;2.25;;
63370;SDS011;72561;48.336;14.472;2023-10-13T16:24:51;3.97;;;1.75;;
63370;SDS011;72561;48.336;14.472;2023-10-13T16:28:19;4.10;;;1.90;;
63370;SDS011;72561;48.336;14.472;2023-10-13T16:32:22;4.60;;;1.98;;
63370;SDS011;72561;48.336;14.472;2023-10-13T16:35:58;4.68;;;2.17;;
63370;SDS011;72561;48.336;14.472;2023-10-13T16:39:21;5.18;;;2.13;;
63370;SDS011;72561;48.336;14.472;2023-10-13T16:42:43;4.82;;;2.15;;
63370;SDS011;72561;48.336;14.472;2023-10-13T16:46:09;5.25;;;1.98;;
63370;SDS011;72561;48.336;14.472;2023-10-13T16:49:34;3.65;;;1.73;;
63370;SDS011;72561;48.336;14.472;2023-10-13T16:52:59;6.00;;;2.20;;
63370;SDS011;72561;48.336;14.472;2023-10-13T16:56:20;4.43;;;2.28;;
63370;SDS011;72561;48.336;14.472;2023-10-13T16:59:41;7.65;;;2.25;;
63370;SDS011;72561;48.336;14.472;2023-10-13T17:03:02;4.40;;;2.05;;
63370;SDS011;72561;48.336;14.472;2023-10-13T17:06:23;5.20;;;2.33;;
63370;SDS011;72561;48.336;14.472;2023-10-13T17:09:46;3.83;;;2.08;;
63370;SDS011;72561;48.336;14.472;2023-10-13T17:13:07;4.68;;;2.00;;
63370;SDS011;72561;48.336;14.472;2023-10-13T17:16:28;5.85;;;2.08;;
63370;SDS011;72561;48.336;14.472;2023-10-13T17:19:50;5.63;;;2.10;;
63370;SDS011;72561;48.336;14.472;2023-10-13T17:23:11;6.03;;;1.75;;
63370;SDS011;72561;48.336;14.472;2023-10-13T17:26:33;5.05;;;1.95;;
63370;SDS011;72561;48.336;14.472;2023-10-13T17:29:54;5.30;;;2.13;;
63370;SDS011;72561;48.336;14.472;2023-10-13T17:33:15;3.85;;;2.05;;
63370;SDS011;72561;48.336;14.472;2023-10-13T17:36:36;4.43;;;2.17;;
63370;SDS011;72561;48.336;14.472;2023-10-13T17:39:57;7.82;;;2.25;;
63370;SDS011;72561;48.336;14.472;2023-10-13T17:43:20;5.65;;;2.17;;
63370;SDS011;72561;48.336;14.472;2023-10-13T17:46:41;4.07;;;1.67;;
63370;SDS011;72561;48.336;14.472;2023-10-13T17:50:02;3.92;;;1.58;;
63370;SDS011;72561;48.336;14.472;2023-10-13T17:53:23;3.85;;;1.80;;
63370;SDS011;72561;48.336;14.472;2023-10-13T17:59:20;4.90;;;1.73;;
63370;SDS011;72561;48.336;14.472;2023-10-13T18:02:41;6.15;;;1.98;;
63370;SDS011;72561;48.336;14.472;2023-10-13T18:06:02;6.32;;;2.20;;
63370;SDS011;72561;48.336;14.472;2023-10-13T18:09:23;4.10;;;1.70;;
63370;SDS011;72561;48.336;14.472;2023-10-13T18:12:44;6.45;;;1.90;;
63370;SDS011;72561;48.336;14.472;2023-10-13T18:16:12;4.45;;;1.90;;
63370;SDS011;72561;48.336;14.472;2023-10-13T18:19:34;4.50;;;2.10;;
63370;SDS011;72561;48.336;14.472;2023-10-13T18:22:55;4.75;;;1.92;;
63370;SDS011;72561;48.336;14.472;2023-10-13T18:26:16;3.95;;;1.80;;
63370;SDS011;72561;48.336;14.472;2023-10-13T18:32:35;3.47;;;1.58;;
63370;SDS011;72561;48.336;14.472;2023-10-13T18:39:29;4.13;;;1.73;;
63370;SDS011;72561;48.336;14.472;2023-10-13T18:42:50;3.45;;;1.50;;
63370;SDS011;72561;48.336;14.472;2023-10-13T18:46:12;4.25;;;1.88;;
63370;SDS011;72561;48.336;14.472;2023-10-13T18:49:34;3.53;;;1.73;;
63370;SDS011;72561;48.336;14.472;2023-10-13T18:52:55;4.18;;;2.08;;
63370;SDS011;72561;48.336;14.472;2023-10-13T18:56:17;3.58;;;1.70;;
63370;SDS011;72561;48.336;14.472;2023-10-13T18:59:39;4.78;;;2.38;;
63370;SDS011;72561;48.336;14.472;2023-10-13T19:03:00;3.80;;;2.00;;
63370;SDS011;72561;48.336;14.472;2023-10-13T19:06:22;4.63;;;2.17;;
63370;SDS011;72561;48.336;14.472;2023-10-13T19:09:43;4.55;;;2.08;;
63370;SDS011;72561;48.336;14.472;2023-10-13T19:13:05;5.05;;;2.20;;
63370;SDS011;72561;48.336;14.472;2023-10-13T19:16:26;4.97;;;1.98;;
63370;SDS011;72561;48.336;14.472;2023-10-13T19:19:47;5.80;;;2.03;;
63370;SDS011;72561;48.336;14.472;2023-10-13T19:23:09;4.70;;;2.05;;
63370;SDS011;72561;48.336;14.472;2023-10-13T19:26:30;4.68;;;2.30;;
63370;SDS011;72561;48.336;14.472;2023-10-13T19:29:51;4.53;;;2.03;;
63370;SDS011;72561;48.336;14.472;2023-10-13T19:33:12;5.05;;;2.42;;
63370;SDS011;72561;48.336;14.472;2023-10-13T19:36:33;5.22;;;2.33;;
63370;SDS011;72561;48.336;14.472;2023-10-13T19:39:56;7.95;;;2.40;;
63370;SDS011;72561;48.336;14.472;2023-10-13T19:43:17;7.78;;;2.47;;
63370;SDS011;72561;48.336;14.472;2023-10-13T19:46:38;4.50;;;2.13;;
63370;SDS011;72561;48.336;14.472;2023-10-13T19:49:59;4.45;;;2.33;;
63370;SDS011;72561;48.336;14.472;2023-10-13T19:53:20;4.80;;;2.33;;
63370;SDS011;72561;48.336;14.472;2023-10-13T19:59:35;5.75;;;2.33;;
63370;SDS011;72561;48.336;14.472;2023-10-13T20:02:56;4.90;;;2.13;;
63370;SDS011;72561;48.336;14.472;2023-10-13T20:06:17;4.68;;;2.28;;
63370;SDS011;72561;48.336;14.472;2023-10-13T20:09:38;5.22;;;2.60;;
63370;SDS011;72561;48.336;14.472;2023-10-13T20:12:59;5.05;;;2.25;;
63370;SDS011;72561;48.336;14.472;2023-10-13T20:18:50;5.38;;;2.17;;
63370;SDS011;72561;48.336;14.472;2023-10-13T20:22:12;4.22;;;2.10;;
63370;SDS011;72561;48.336;14.472;2023-10-13T20:25:33;6.38;;;2.33;;
63370;SDS011;72561;48.336;14.472;2023-10-13T20:28:54;5.38;;;2.50;;
63370;SDS011;72561;48.336;14.472;2023-10-13T20:32:16;7.85;;;2.30;;
63370;SDS011;72561;48.336;14.472;2023-10-13T20:35:46;5.43;;;2.17;;
63370;SDS011;72561;48.336;14.472;2023-10-13T20:39:07;4.10;;;1.95;;
63370;SDS011;72561;48.336;14.472;2023-10-13T20:42:28;4.78;;;2.22;;
63370;SDS011;72561;48.336;14.472;2023-10-13T20:45:49;4.47;;;2.05;;
63370;SDS011;72561;48.336;14.472;2023-10-13T20:49:10;5.82;;;2.60;;
63370;SDS011;72561;48.336;14.472;2023-10-13T20:54:20;4.38;;;2.33;;
63370;SDS011;72561;48.336;14.472;2023-10-13T20:59:51;4.45;;;2.10;;
63370;SDS011;72561;48.336;14.472;2023-10-13T21:03:12;4.18;;;2.17;;
63370;SDS011;72561;48.336;14.472;2023-10-13T21:06:33;4.43;;;2.22;;
63370;SDS011;72561;48.336;14.472;2023-10-13T21:09:54;5.22;;;2.40;;
63370;SDS011;72561;48.336;14.472;2023-10-13T21:13:15;4.05;;;2.15;;
63370;SDS011;72561;48.336;14.472;2023-10-13T21:16:38;4.40;;;2.30;;
63370;SDS011;72561;48.336;14.472;2023-10-13T21:19:59;4.38;;;2.22;;
63370;SDS011;72561;48.336;14.472;2023-10-13T21:23:20;4.63;;;2.33;;
63370;SDS011;72561;48.336;14.472;2023-10-13T21:26:41;5.13;;;2.65;;
63370;SDS011;72561;48.336;14.472;2023-10-13T21:30:02;3.70;;;1.88;;
63370;SDS011;72561;48.336;14.472;2023-10-13T21:33:25;4.88;;;2.28;;
63370;SDS011;72561;48.336;14.472;2023-10-13T21:36:46;3.97;;;2.10;;
63370;SDS011;72561;48.336;14.472;2023-10-13T21:40:07;4.07;;;2.00;;
63370;SDS011;72561;48.336;14.472;2023-10-13T21:43:29;3.92;;;2.10;;
63370;SDS011;72561;48.336;14.472;2023-10-13T21:47:21;4.38;;;1.83;;
63370;SDS011;72561;48.336;14.472;2023-10-13T21:50:42;4.75;;;2.00;;
63370;SDS011;72561;48.336;14.472;2023-10-13T21:54:03;4.28;;;2.20;;
63370;SDS011;72561;48.336;14.472;2023-10-13T21:57:25;4.18;;;2.10;;
63370;SDS011;72561;48.336;14.472;2023-10-13T22:00:46;4.85;;;2.30;;
63370;SDS011;72561;48.336;14.472;2023-10-13T22:04:08;4.05;;;2.00;;